Amelia Island, Florida
Current Conditions -  °F | °C
As of 10:15 PM on Saturday 20 Dec 2014 (Local Time) from KFHB Reporting Station
Overcast Overcast  
Wind Chill: 63°   Ceiling: 600
Heat Index: 63°   Visibility: 7mi
Dew Point: 59°   Wind: 8mph
Humidity: 88%   Direction: 20°NNE
Pressure: 30.13"   Gusts: NA
Location:  30.6056°N, 81.5268°W
Report Text: KFHB 210315Z AUTO 02007KT 7SM OVC006 17/15 A3013 RMK AO1
Loading
Personal Weather Stations






























Interactive Weather Map New forecast layout! Learn more

10-Day Weather Forecast

Advertisements
Track Severe Weather on mobile